Time;durP1;ratioP1;P1;durP2;ratioP2;P2;SDS_P1;SDS_P2;PMS_P1;PMS_P2;Temp;Humidity;BMP_temperature;BMP_pressure;BME280_temperature;BME280_humidity;BME280_pressure;Samples;Min_cycle;Max_cycle;Signal;HPM_P1;HPM_P2
2023/03/22 00:01:45;;;;;;;19.13;5.00;;;;;;;8.44;100.00;100841.09;5073234;28;20117;-67
2023/03/22 00:04:10;;;;;;;17.70;4.95;;;;;;;8.43;100.00;100841.03;5073347;28;20029;-67
2023/03/22 00:06:36;;;;;;;17.67;5.30;;;;;;;8.33;100.00;100824.22;5073513;28;20032;-66
2023/03/22 00:09:01;;;;;;;18.17;4.85;;;;;;;8.26;100.00;100827.66;5073504;28;20024;-66
2023/03/22 00:11:27;;;;;;;19.17;5.22;;;;;;;8.17;100.00;100820.50;5073311;28;20090;-66
2023/03/22 00:13:53;;;;;;;17.58;5.30;;;;;;;8.12;100.00;100819.56;5073162;28;20381;-68
2023/03/22 00:16:19;;;;;;;19.67;5.45;;;;;;;8.02;100.00;100824.69;5073080;28;20056;-70
2023/03/22 00:18:45;;;;;;;17.08;4.93;;;;;;;7.96;100.00;100815.81;5073005;28;20471;-70
2023/03/22 00:21:13;;;;;;;17.70;5.03;;;;;;;7.92;100.00;100803.47;5073162;28;20043;-70
2023/03/22 00:23:39;;;;;;;18.50;4.97;;;;;;;7.89;100.00;100808.69;5072974;28;20095;-70
2023/03/22 00:26:04;;;;;;;19.80;4.80;;;;;;;7.85;100.00;100810.41;5073271;28;20067;-70
2023/03/22 00:28:30;;;;;;;18.35;4.75;;;;;;;7.84;100.00;100803.34;5072900;28;20519;-70
2023/03/22 00:30:58;;;;;;;17.55;5.00;;;;;;;7.80;100.00;100802.41;5054872;28;20039;-70
2023/03/22 00:33:24;;;;;;;19.80;5.22;;;;;;;7.77;100.00;100794.47;5073016;28;20074;-70
2023/03/22 00:35:56;;;;;;;19.83;5.30;;;;;;;7.77;100.00;100785.72;5072814;28;20035;-71
2023/03/22 00:38:21;;;;;;;20.10;5.60;;;;;;;7.76;100.00;100791.81;5072766;28;20336;-70
2023/03/22 00:40:47;;;;;;;19.52;5.05;;;;;;;7.75;100.00;100784.81;5072635;28;20035;-70
2023/03/22 00:43:12;;;;;;;19.38;5.30;;;;;;;7.71;100.00;100775.09;5073235;28;20068;-70
2023/03/22 00:45:39;;;;;;;18.38;5.00;;;;;;;7.64;100.00;100776.75;5072893;28;20060;-70
2023/03/22 00:48:07;;;;;;;18.40;5.13;;;;;;;7.64;100.00;100780.25;5072791;28;20021;-70
2023/03/22 00:50:33;;;;;;;20.08;5.65;;;;;;;7.62;100.00;100775.84;5068584;28;20024;-71
2023/03/22 00:52:58;;;;;;;18.70;5.60;;;;;;;7.60;100.00;100767.94;5072598;28;20033;-70
2023/03/22 00:55:23;;;;;;;21.58;6.30;;;;;;;7.60;100.00;100762.66;5072711;28;20025;-71
2023/03/22 00:57:49;;;;;;;19.60;6.35;;;;;;;7.65;100.00;100757.47;5072760;28;20033;-70
2023/03/22 01:00:15;;;;;;;21.13;6.45;;;;;;;7.72;100.00;100755.78;5072472;28;20063;-66
2023/03/22 01:02:42;;;;;;;21.23;7.18;;;;;;;7.80;100.00;100759.44;5072639;28;20471;-67
2023/03/22 01:05:08;;;;;;;21.25;6.97;;;;;;;7.89;100.00;100758.69;5072467;28;20090;-68
2023/03/22 01:07:37;;;;;;;21.02;7.63;;;;;;;7.96;100.00;100752.63;5072561;28;20029;-66
2023/03/22 01:10:04;;;;;;;21.25;8.02;;;;;;;7.96;100.00;100744.75;5068540;28;20062;-66
2023/03/22 01:12:29;;;;;;;21.88;8.63;;;;;;;8.08;100.00;100744.00;5072388;28;20494;-67
2023/03/22 01:14:55;;;;;;;22.50;8.80;;;;;;;8.16;100.00;100745.88;5070955;28;20044;-68
2023/03/22 01:17:21;;;;;;;22.20;9.13;;;;;;;8.24;100.00;100737.19;5072457;28;20051;-66
2023/03/22 01:19:46;;;;;;;21.55;9.20;;;;;;;8.26;100.00;100733.72;5072324;28;20086;-68
2023/03/22 01:22:12;;;;;;;22.45;9.20;;;;;;;8.33;100.00;100730.28;5072340;28;20059;-68
2023/03/22 01:24:37;;;;;;;23.30;9.85;;;;;;;8.37;100.00;100716.31;5072463;28;20024;-67
2023/03/22 01:27:03;;;;;;;23.80;9.88;;;;;;;8.36;100.00;100719.78;5072224;28;20081;-66
2023/03/22 01:29:30;;;;;;;22.83;10.10;;;;;;;8.32;100.00;100701.31;5072157;28;20035;-67
2023/03/22 01:31:55;;;;;;;22.83;10.32;;;;;;;8.28;100.00;100692.47;5072407;28;20032;-67
2023/03/22 01:34:21;;;;;;;24.02;10.38;;;;;;;8.32;100.00;100686.38;5072139;28;20131;-68
2023/03/22 01:36:46;;;;;;;24.65;10.75;;;;;;;8.33;100.00;100680.25;5072093;28;20047;-66
2023/03/22 01:39:12;;;;;;;23.20;10.60;;;;;;;8.41;100.00;100671.53;5072300;28;20039;-67
2023/03/22 01:41:37;;;;;;;24.20;10.55;;;;;;;8.46;100.00;100675.13;5071977;28;20463;-68
2023/03/22 01:44:12;;;;;;;24.10;11.15;;;;;;;8.50;100.00;100677.84;5072147;28;20069;-67
2023/03/22 01:46:43;;;;;;;24.35;11.10;;;;;;;8.49;100.00;100673.44;5068726;28;20105;-67
2023/03/22 01:49:14;;;;;;;23.60;11.18;;;;;;;8.55;100.00;100660.31;5072017;28;20036;-68
2023/03/22 01:51:42;;;;;;;24.90;12.20;;;;;;;8.61;100.00;100658.63;5071971;28;20658;-70
2023/03/22 01:54:17;;;;;;;26.73;11.65;;;;;;;8.63;100.00;100652.47;5071954;28;20475;-70
2023/03/22 01:56:43;;;;;;;24.05;12.00;;;;;;;8.65;100.00;100642.84;5069358;28;20029;-70
2023/03/22 01:59:11;;;;;;;23.67;11.95;;;;;;;8.65;100.00;100647.22;5071899;28;20029;-71
2023/03/22 02:01:37;;;;;;;23.52;11.70;;;;;;;8.66;100.00;100641.94;5071780;28;20079;-71
2023/03/22 02:04:11;;;;;;;24.08;12.13;;;;;;;8.76;100.00;100637.66;5071135;28;20049;-71
2023/03/22 02:06:37;;;;;;;23.75;12.27;;;;;;;8.75;100.00;100630.59;5072216;28;20379;-70
2023/03/22 02:09:08;;;;;;;25.23;12.60;;;;;;;8.70;100.00;100627.94;5071699;28;20379;-71
2023/03/22 02:11:37;;;;;;;24.77;12.95;;;;;;;8.73;100.00;100637.63;5071464;28;20035;-71
2023/03/22 02:14:32;;;;;;;25.23;12.73;;;;;;;8.75;100.00;100627.09;5075542;28;20044;-72
2023/03/22 02:17:26;;;;;;;23.05;12.23;;;;;;;8.77;100.00;100625.38;5074817;28;20024;-71
2023/03/22 02:20:47;;;;;;;24.13;13.32;;;;;;;8.80;100.00;100617.50;5060192;28;20048;-71
2023/03/22 02:23:52;;;;;;;25.13;12.95;;;;;;;8.82;100.00;100621.00;5038729;28;20158;-72
2023/03/22 02:26:26;;;;;;;25.20;12.60;;;;;;;8.88;100.00;100613.13;5073075;28;20035;-71
2023/03/22 02:29:11;;;;;;;24.00;12.35;;;;;;;8.86;100.00;100615.75;5075350;28;20360;-71
2023/03/22 02:31:45;;;;;;;23.48;12.43;;;;;;;8.86;100.00;100618.41;5071770;28;20051;-71
2023/03/22 02:34:41;;;;;;;24.90;12.38;;;;;;;8.90;100.00;100616.69;5072282;28;20060;-71
2023/03/22 02:37:32;;;;;;;26.02;12.82;;;;;;;8.84;100.00;100617.53;5071651;28;20029;-71
2023/03/22 02:40:34;;;;;;;24.63;12.30;;;;;;;8.88;100.00;100610.50;5074509;28;20387;-71
2023/03/22 02:43:33;;;;;;;24.20;12.05;;;;;;;8.83;100.00;100607.84;5074688;28;20440;-66
2023/03/22 02:46:14;;;;;;;24.58;12.15;;;;;;;8.88;100.00;100608.78;5074167;28;20087;-66
2023/03/22 02:49:01;;;;;;;23.33;11.63;;;;;;;8.92;100.00;100608.78;5071824;28;20052;-66
2023/03/22 02:51:41;;;;;;;22.58;10.93;;;;;;;8.92;100.00;100611.41;5074720;28;20020;-66
2023/03/22 02:54:10;;;;;;;21.63;10.43;;;;;;;8.94;100.00;100604.41;5071293;28;20435;-67
2023/03/22 02:56:54;;;;;;;22.33;10.85;;;;;;;8.95;100.00;100599.13;5070872;28;20385;-66
2023/03/22 02:59:23;;;;;;;22.70;10.40;;;;;;;8.91;100.00;100594.69;5072716;28;20032;-68
2023/03/22 03:01:53;;;;;;;22.05;9.82;;;;;;;8.96;100.00;100595.63;5074939;28;20037;-66
2023/03/22 03:04:24;;;;;;;21.50;9.77;;;;;;;8.97;100.00;100589.50;5074795;28;20105;-66
2023/03/22 03:06:52;;;;;;;22.15;9.98;;;;;;;8.93;100.00;100590.34;5074447;28;20035;-66
2023/03/22 03:09:19;;;;;;;21.38;8.95;;;;;;;8.92;100.00;100583.28;5074418;28;20028;-66
2023/03/22 03:11:51;;;;;;;21.75;9.65;;;;;;;8.89;100.00;100578.00;5074585;28;20036;-66
2023/03/22 03:14:21;;;;;;;23.10;9.50;;;;;;;8.83;100.00;100577.97;5074144;28;20123;-66
2023/03/22 03:16:58;;;;;;;21.13;8.98;;;;;;;8.93;100.00;100582.44;5074273;28;20028;-66
2023/03/22 03:19:37;;;;;;;20.73;8.65;;;;;;;8.89;100.00;100578.00;5074168;28;20355;-66
2023/03/22 03:22:40;;;;;;;20.15;8.15;;;;;;;8.87;100.00;100579.75;5074331;28;20390;-66
2023/03/22 03:25:14;;;;;;;20.75;8.50;;;;;;;8.93;100.00;100579.81;5070236;28;20036;-65
2023/03/22 03:27:48;;;;;;;20.98;8.18;;;;;;;8.87;100.00;100580.63;5070736;28;20515;-66
2023/03/22 03:30:30;;;;;;;21.15;8.52;;;;;;;8.85;100.00;100570.94;5074388;28;20024;-66
2023/03/22 03:33:02;;;;;;;20.35;7.68;;;;;;;8.80;100.00;100572.69;5074141;28;20490;-67
2023/03/22 03:35:32;;;;;;;21.15;8.20;;;;;;;8.81;100.00;100569.16;5073869;28;20070;-67
2023/03/22 03:38:07;;;;;;;19.50;7.20;;;;;;;8.90;100.00;100569.25;5073832;28;20027;-66
2023/03/22 03:40:39;;;;;;;19.98;7.43;;;;;;;8.86;100.00;100570.94;5073765;28;20066;-66
2023/03/22 03:43:05;;;;;;;20.80;7.22;;;;;;;8.96;100.00;100579.81;5069839;28;20060;-66
2023/03/22 03:45:33;;;;;;;20.30;6.97;;;;;;;8.99;100.00;100569.28;5073562;28;20031;-68
2023/03/22 03:48:02;;;;;;;19.75;7.00;;;;;;;8.95;100.00;100572.78;5073652;28;20066;-67
2023/03/22 03:50:28;;;;;;;19.67;7.03;;;;;;;8.97;100.00;100575.41;5073731;28;20036;-68
2023/03/22 03:52:54;;;;;;;20.23;6.53;;;;;;;9.01;100.00;100578.09;5073542;28;20387;-66
2023/03/22 03:55:21;;;;;;;19.30;6.78;;;;;;;8.92;100.00;100578.03;5073511;28;20063;-66
2023/03/22 03:57:46;;;;;;;20.13;6.53;;;;;;;8.90;100.00;100570.09;5073625;28;20029;-66
2023/03/22 04:00:13;;;;;;;20.95;6.55;;;;;;;8.87;100.00;100590.31;5073614;28;20375;-66
2023/03/22 04:02:40;;;;;;;19.42;6.70;;;;;;;8.82;100.00;100571.78;5073325;28;20040;-67
2023/03/22 04:05:07;;;;;;;20.23;6.38;;;;;;;8.78;100.00;100598.13;5073785;28;20400;-66
2023/03/22 04:07:32;;;;;;;20.35;6.13;;;;;;;8.77;100.00;100581.44;5073174;28;20028;-66
2023/03/22 04:09:58;;;;;;;19.02;6.20;;;;;;;8.76;100.00;100576.16;5073152;28;20047;-66
2023/03/22 04:12:23;;;;;;;19.60;6.30;;;;;;;8.69;100.00;100572.56;5073349;28;20068;-67
2023/03/22 04:14:49;;;;;;;18.80;5.97;;;;;;;8.63;100.00;100557.59;5072963;28;20053;-67
2023/03/22 04:17:14;;;;;;;19.85;6.03;;;;;;;8.65;100.00;100576.97;5071886;28;20107;-66
2023/03/22 04:19:41;;;;;;;20.55;6.15;;;;;;;8.64;100.00;100564.66;5072047;28;20041;-67
2023/03/22 04:22:06;;;;;;;19.00;6.10;;;;;;;8.62;100.00;100569.03;5072933;28;20059;-67
2023/03/22 04:24:32;;;;;;;18.55;5.75;;;;;;;8.60;100.00;100565.47;5072937;28;20464;-68
2023/03/22 04:26:57;;;;;;;19.90;6.35;;;;;;;8.66;100.00;100573.44;5072645;28;20032;-67
2023/03/22 04:29:23;;;;;;;20.23;6.10;;;;;;;8.62;100.00;100561.13;5072697;28;20035;-67
2023/03/22 04:31:48;;;;;;;19.58;5.70;;;;;;;8.57;100.00;100554.06;5072815;28;20021;-67
2023/03/22 04:34:14;;;;;;;19.63;5.93;;;;;;;8.51;100.00;100550.50;5072885;28;20086;-67
2023/03/22 04:36:39;;;;;;;19.95;6.03;;;;;;;8.47;100.00;100561.00;5072832;28;20032;-66
2023/03/22 04:39:08;;;;;;;18.48;5.95;;;;;;;8.44;100.00;100558.31;5073034;28;20076;-70
2023/03/22 04:41:34;;;;;;;18.35;5.70;;;;;;;8.45;100.00;100549.56;5073086;28;20445;-67
2023/03/22 04:44:03;;;;;;;19.05;6.07;;;;;;;8.43;100.00;100548.63;5072605;28;20032;-66
2023/03/22 04:46:30;;;;;;;18.73;5.80;;;;;;;8.49;100.00;100548.69;5072586;28;20028;-67
2023/03/22 04:48:56;;;;;;;20.77;6.07;;;;;;;8.47;100.00;100547.81;5073058;28;20059;-67
2023/03/22 04:51:21;;;;;;;19.15;5.75;;;;;;;8.46;100.00;100551.31;5072892;28;20056;-66
2023/03/22 04:53:47;;;;;;;19.63;5.72;;;;;;;8.47;100.00;100547.81;5072558;28;20017;-68
2023/03/22 04:56:13;;;;;;;19.02;5.60;;;;;;;8.42;100.00;100541.59;5072748;28;20514;-66
2023/03/22 04:58:41;;;;;;;20.23;6.05;;;;;;;8.43;100.00;100548.63;5072572;28;20497;-67
2023/03/22 05:01:09;;;;;;;19.02;5.65;;;;;;;8.52;100.00;100552.25;5068652;28;20024;-67
2023/03/22 05:03:36;;;;;;;20.08;5.82;;;;;;;8.57;100.00;100544.38;5072711;28;20028;-66
2023/03/22 05:06:03;;;;;;;19.20;5.60;;;;;;;8.67;100.00;100540.94;5072427;28;20534;-67
2023/03/22 05:08:29;;;;;;;20.30;5.70;;;;;;;8.60;100.00;100544.41;5072242;28;20029;-67
2023/03/22 05:10:57;;;;;;;20.65;5.85;;;;;;;8.61;100.00;100543.53;5072634;28;20078;-66
2023/03/22 05:13:25;;;;;;;19.67;5.60;;;;;;;8.60;100.00;100535.63;5072420;28;20056;-67
2023/03/22 05:15:51;;;;;;;18.95;5.50;;;;;;;8.59;100.00;100545.31;5072344;28;20072;-67
2023/03/22 05:18:19;;;;;;;17.30;5.22;;;;;;;8.61;100.00;100547.94;5072549;28;20090;-68
2023/03/22 05:20:45;;;;;;;20.65;5.40;;;;;;;8.61;100.00;100540.91;5072465;28;20340;-67
2023/03/22 05:23:12;;;;;;;18.40;5.43;;;;;;;8.56;100.00;100529.44;5072332;28;20028;-66
2023/03/22 05:25:38;;;;;;;18.05;5.10;;;;;;;8.58;100.00;100532.09;5072502;28;20032;-66
2023/03/22 05:28:04;;;;;;;19.50;5.25;;;;;;;8.55;100.00;100536.47;5072211;28;20020;-67
2023/03/22 05:30:31;;;;;;;18.25;4.90;;;;;;;8.58;100.00;100540.88;5072192;28;20074;-66
2023/03/22 05:32:58;;;;;;;17.98;4.88;;;;;;;8.57;100.00;100535.59;5072424;28;20028;-66
2023/03/22 05:35:25;;;;;;;17.08;5.10;;;;;;;8.65;100.00;100536.53;5072136;28;20044;-67
2023/03/22 05:37:50;;;;;;;18.45;4.70;;;;;;;8.59;100.00;100552.31;5073168;28;20090;-68
2023/03/22 05:40:16;;;;;;;18.10;4.50;;;;;;;8.61;100.00;100538.28;5076209;28;20025;-66
2023/03/22 05:42:41;;;;;;;19.00;4.75;;;;;;;8.56;100.00;100537.34;5075999;28;20033;-71
2023/03/22 05:45:07;;;;;;;18.10;4.60;;;;;;;8.65;100.00;100536.53;5075977;28;20039;-68
2023/03/22 05:47:33;;;;;;;18.17;4.70;;;;;;;8.64;100.00;100532.16;5076156;28;20111;-66
2023/03/22 05:49:59;;;;;;;17.23;4.55;;;;;;;8.64;100.00;100532.16;5076117;28;20123;-66
2023/03/22 05:52:25;;;;;;;15.80;4.47;;;;;;;8.63;100.00;100533.00;5076141;28;20020;-67
2023/03/22 05:54:50;;;;;;;19.08;4.50;;;;;;;8.65;100.00;100545.34;5075667;28;20040;-68
2023/03/22 05:57:16;;;;;;;16.42;4.40;;;;;;;8.68;100.00;100534.81;5075712;28;20046;-68
2023/03/22 05:59:41;;;;;;;17.88;4.40;;;;;;;8.64;100.00;100538.28;5075859;28;20063;-66
2023/03/22 06:02:07;;;;;;;17.60;4.20;;;;;;;8.68;100.00;100552.41;5075848;28;20113;-66
2023/03/22 06:04:32;;;;;;;18.95;4.57;;;;;;;8.67;100.00;100535.69;5075531;28;20077;-67
2023/03/22 06:06:57;;;;;;;18.23;4.75;;;;;;;8.66;100.00;100539.19;5075705;28;20036;-66
2023/03/22 06:09:23;;;;;;;17.73;4.40;;;;;;;8.64;100.00;100527.75;5075452;28;20024;-66
2023/03/22 06:11:48;;;;;;;18.92;4.60;;;;;;;8.71;100.00;100526.06;5075454;28;20025;-68
2023/03/22 06:14:14;;;;;;;17.30;4.32;;;;;;;8.68;100.00;100539.22;5075483;28;20041;-68
2023/03/22 06:16:40;;;;;;;19.00;4.38;;;;;;;8.69;100.00;100527.78;5075437;28;20387;-67
2023/03/22 06:19:05;;;;;;;17.95;4.35;;;;;;;8.71;100.00;100524.28;5071417;28;20072;-69
2023/03/22 06:21:31;;;;;;;18.85;4.40;;;;;;;8.83;100.00;100535.78;5075437;28;20064;-67
2023/03/22 06:23:56;;;;;;;19.13;4.57;;;;;;;8.85;100.00;100534.03;5075245;28;20029;-69
2023/03/22 06:26:21;;;;;;;16.08;4.15;;;;;;;8.88;100.00;100539.31;5075231;28;20029;-67
2023/03/22 06:28:47;;;;;;;18.42;4.55;;;;;;;8.93;100.00;100534.97;5075359;28;20033;-67
2023/03/22 06:31:12;;;;;;;19.23;4.63;;;;;;;9.00;100.00;100530.59;5073845;28;20116;-67
2023/03/22 06:33:37;;;;;;;18.05;4.75;;;;;;;8.96;100.00;100532.34;5075298;28;20487;-67
2023/03/22 06:36:03;;;;;;;19.90;5.15;;;;;;;9.00;100.00;100543.78;5075062;28;20043;-67
2023/03/22 06:38:29;;;;;;;18.38;4.80;;;;;;;9.00;100.00;100549.97;5075257;28;20037;-67
2023/03/22 06:40:54;;;;;;;19.30;4.97;;;;;;;9.05;100.00;100527.13;5075082;28;20031;-67
2023/03/22 06:43:20;;;;;;;16.58;4.55;;;;;;;9.10;100.00;100526.28;5074791;28;20502;-68
2023/03/22 06:45:46;;;;;;;18.17;5.10;;;;;;;9.21;100.00;100537.78;5073303;28;20118;-68
2023/03/22 06:48:12;;;;;;;19.33;5.00;;;;;;;9.21;100.00;100543.03;5076152;28;20036;-70
2023/03/22 06:50:38;;;;;;;20.38;4.90;;;;;;;9.20;100.00;100546.53;5068017;28;20033;-69
2023/03/22 06:53:04;;;;;;;17.65;4.95;;;;;;;9.22;100.00;100544.81;5069396;28;20063;-69
2023/03/22 06:55:33;;;;;;;19.75;5.32;;;;;;;9.31;100.00;100541.34;5071558;28;20108;-68
2023/03/22 06:58:02;;;;;;;19.35;5.35;;;;;;;9.45;100.00;100531.72;5074400;28;20463;-69
2023/03/22 07:00:28;;;;;;;20.25;5.40;;;;;;;9.57;100.00;100530.91;5067898;28;20040;-69
2023/03/22 07:02:54;;;;;;;18.77;5.30;;;;;;;9.57;100.00;100537.03;5071734;28;20029;-70
2023/03/22 07:05:20;;;;;;;19.77;5.10;;;;;;;9.64;100.00;100537.06;5069228;28;20024;-70
2023/03/22 07:07:45;;;;;;;19.98;5.35;;;;;;;9.59;100.00;100516.81;5065576;28;20104;-70
2023/03/22 07:10:11;;;;;;;18.20;5.10;;;;;;;9.58;100.00;100544.09;5070915;28;20505;-69
2023/03/22 07:12:36;;;;;;;20.17;5.30;;;;;;;9.54;100.00;100530.88;5070881;28;20024;-69
2023/03/22 07:15:02;;;;;;;19.23;5.22;;;;;;;9.53;100.00;100523.84;5067682;28;20051;-69
2023/03/22 07:17:28;;;;;;;19.70;5.68;;;;;;;9.53;100.00;100534.41;5069753;28;20039;-69
2023/03/22 07:19:53;;;;;;;19.70;5.28;;;;;;;9.60;100.00;100529.13;5071002;28;20024;-69
2023/03/22 07:22:21;;;;;;;19.52;5.40;;;;;;;9.67;100.00;100547.63;5071255;28;20029;-69
2023/03/22 07:24:50;;;;;;;19.30;5.75;;;;;;;9.75;100.00;100530.94;5074653;28;20047;-68
2023/03/22 07:27:16;;;;;;;19.27;5.65;;;;;;;9.77;100.00;100545.03;5071143;28;20028;-67
2023/03/22 07:29:42;;;;;;;18.77;5.47;;;;;;;9.85;100.00;100542.41;5065296;28;20036;-70
2023/03/22 07:32:07;;;;;;;19.80;5.88;;;;;;;9.89;100.00;100549.47;5071008;28;20426;-69
2023/03/22 07:34:32;;;;;;;19.63;5.85;;;;;;;9.95;100.00;100557.38;5074342;28;20028;-67
2023/03/22 07:36:58;;;;;;;20.52;6.32;;;;;;;9.98;100.00;100553.88;5067919;28;20135;-69
2023/03/22 07:39:27;;;;;;;21.52;6.20;;;;;;;9.99;100.00;100544.19;5073046;28;20060;-69
2023/03/22 07:41:53;;;;;;;20.77;6.45;;;;;;;10.07;100.00;100556.53;5069864;28;20040;-70
2023/03/22 07:44:19;;;;;;;21.30;6.05;;;;;;;10.07;100.00;100551.25;5070170;28;20024;-70
2023/03/22 07:46:44;;;;;;;19.73;6.13;;;;;;;10.12;100.00;100544.22;5066356;28;20043;-68
2023/03/22 07:49:09;;;;;;;18.38;5.60;;;;;;;10.19;100.00;100553.03;5072426;28;20059;-68
2023/03/22 07:51:35;;;;;;;20.73;5.45;;;;;;;10.29;100.00;100538.97;5072971;28;20032;-69
2023/03/22 07:54:01;;;;;;;19.85;5.50;;;;;;;10.39;100.00;100550.44;5069541;28;20121;-68
2023/03/22 07:56:26;;;;;;;19.00;5.15;;;;;;;10.49;100.00;100555.75;5064305;28;20032;-70
2023/03/22 07:58:52;;;;;;;19.70;5.13;;;;;;;10.44;100.00;100553.97;5064528;28;20082;-68
2023/03/22 08:01:17;;;;;;;18.70;4.93;;;;;;;10.42;100.00;100549.56;5063796;28;20025;-69
2023/03/22 08:03:42;;;;;;;16.90;4.60;;;;;;;10.47;100.00;100550.47;5068836;28;20532;-70
2023/03/22 08:06:08;;;;;;;20.42;4.43;;;;;;;10.43;100.00;100546.06;5064611;28;20476;-70
2023/03/22 08:08:35;;;;;;;16.85;4.30;;;;;;;10.42;100.00;100553.06;5074663;28;20082;-69
2023/03/22 08:11:02;;;;;;;16.48;4.10;;;;;;;10.48;100.00;100559.25;5068200;28;20024;-70
2023/03/22 08:13:27;;;;;;;20.10;4.30;;;;;;;10.51;100.00;100549.56;5062118;28;20052;-67
2023/03/22 08:15:52;;;;;;;16.70;4.03;;;;;;;10.57;100.00;100560.16;5072489;28;20037;-70
2023/03/22 08:18:18;;;;;;;16.25;3.88;;;;;;;10.61;100.00;100553.09;5060730;28;20044;-70
2023/03/22 08:20:44;;;;;;;17.50;3.83;;;;;;;10.67;100.00;100568.94;5074133;28;20051;-70
2023/03/22 08:23:15;;;;;;;18.73;3.72;;;;;;;10.74;100.00;100570.69;5068953;28;20032;-70
2023/03/22 08:25:42;;;;;;;18.52;3.80;;;;;;;10.75;100.00;100551.31;5062299;28;20028;-70
2023/03/22 08:28:08;;;;;;;18.83;3.92;;;;;;;10.85;100.00;100554.84;5065869;28;20020;-70
2023/03/22 08:30:34;;;;;;;17.25;3.65;;;;;;;10.90;100.00;100550.41;5068615;28;20033;-70
2023/03/22 08:32:59;;;;;;;18.10;3.97;;;;;;;11.06;100.00;100559.19;5069921;28;20475;-70
2023/03/22 08:35:25;;;;;;;16.90;3.70;;;;;;;11.15;100.00;100553.00;5067377;28;20032;-70
2023/03/22 08:37:56;;;;;;;20.90;3.80;;;;;;;11.19;100.00;100548.59;5067755;28;20020;-70
2023/03/22 08:40:22;;;;;;;15.48;3.70;;;;;;;11.22;100.00;100541.50;5075814;28;20032;-70
2023/03/22 08:42:50;;;;;;;18.08;3.75;;;;;;;11.23;100.00;100537.13;5072841;28;20094;-70
2023/03/22 08:45:16;;;;;;;17.75;3.63;;;;;;;11.30;100.00;100541.47;5072536;28;20025;-71
2023/03/22 08:47:42;;;;;;;18.27;3.95;;;;;;;11.34;100.00;100543.25;5072897;28;20075;-70
2023/03/22 08:50:09;;;;;;;17.77;3.80;;;;;;;11.40;100.00;100531.75;5072853;28;20082;-70
2023/03/22 08:52:35;;;;;;;16.88;3.63;;;;;;;11.40;100.00;100551.19;5072653;28;20111;-70
2023/03/22 08:55:00;;;;;;;16.42;3.78;;;;;;;11.43;100.00;100535.28;5072564;28;20033;-67
2023/03/22 08:57:28;;;;;;;16.50;3.65;;;;;;;11.54;100.00;100543.16;5072726;28;20486;-67
2023/03/22 08:59:55;;;;;;;17.88;3.60;;;;;;;11.43;100.00;100515.84;5072808;28;20071;-68
2023/03/22 09:02:21;;;;;;;14.32;3.38;;;;;;;11.44;100.00;100554.69;5072408;28;20086;-69
2023/03/22 09:04:46;;;;;;;16.30;3.40;;;;;;;11.50;100.00;100536.13;5072585;28;20423;-67
2023/03/22 09:07:11;;;;;;;14.57;3.30;;;;;;;11.56;100.00;100549.31;5072495;28;20033;-67
2023/03/22 09:09:37;;;;;;;16.00;3.28;;;;;;;11.52;100.00;100548.47;5072410;28;20069;-68
2023/03/22 09:12:02;;;;;;;17.17;3.33;;;;;;;11.52;100.00;100532.59;5071242;28;20036;-67
2023/03/22 09:14:28;;;;;;;16.42;3.30;;;;;;;11.54;100.00;100529.94;5072080;28;20087;-69
2023/03/22 09:16:53;;;;;;;15.98;3.30;;;;;;;11.64;100.00;100514.88;5072421;28;20479;-67
2023/03/22 09:19:19;;;;;;;16.70;3.47;;;;;;;11.73;100.00;100530.72;5072538;28;20418;-67
2023/03/22 09:21:44;;;;;;;17.25;3.40;;;;;;;11.90;100.00;100525.34;5070907;28;20028;-68
2023/03/22 09:24:10;;;;;;;16.23;3.30;;;;;;;11.90;100.00;100521.78;5068031;28;20971;-72
2023/03/22 09:26:35;;;;;;;15.88;3.20;;;;;;;11.88;100.00;100510.34;5062037;28;20032;-71
2023/03/22 09:29:01;;;;;;;16.92;3.50;;;;;;;11.82;100.00;100529.78;5072933;28;20073;-72
2023/03/22 09:31:27;;;;;;;15.65;3.10;;;;;;;11.80;100.00;100524.50;5073326;28;20467;-72
2023/03/22 09:33:52;;;;;;;16.88;3.50;;;;;;;11.77;100.00;100498.03;5070904;28;20024;-72
2023/03/22 09:36:18;;;;;;;18.55;3.30;;;;;;;11.76;100.00;100517.44;5074063;28;20032;-72
2023/03/22 09:38:45;;;;;;;16.45;3.53;;;;;;;11.75;100.00;100526.31;5068557;28;20086;-72
2023/03/22 09:41:20;;;;;;;17.08;3.28;;;;;;;11.79;100.00;100522.72;5069413;28;20032;-69
2023/03/22 09:43:52;;;;;;;17.48;3.35;;;;;;;11.63;100.00;100508.69;5066552;28;20037;-71
2023/03/22 09:46:30;;;;;;;16.83;3.33;;;;;;;11.63;100.00;100519.28;5066120;28;20042;-69
2023/03/22 09:48:57;;;;;;;16.65;3.40;;;;;;;11.50;100.00;100512.28;5067981;28;20283;-70
2023/03/22 09:51:39;;;;;;;18.63;3.42;;;;;;;11.53;100.00;100517.56;5055921;28;20502;-67
2023/03/22 09:54:13;;;;;;;17.83;3.05;;;;;;;11.52;100.00;100515.84;5069349;28;20056;-68
2023/03/22 09:56:39;;;;;;;18.23;3.30;;;;;;;11.50;100.00;100515.84;5067078;28;20090;-67
2023/03/22 09:59:21;;;;;;;16.45;3.30;;;;;;;11.52;100.00;100495.53;5067039;28;20051;-68
2023/03/22 10:01:54;;;;;;;18.15;3.40;;;;;;;11.43;100.00;100514.09;5063978;28;20123;-68
2023/03/22 10:04:37;;;;;;;16.13;3.30;;;;;;;11.39;100.00;100524.69;5067186;28;20426;-68
2023/03/22 10:07:32;;;;;;;16.55;3.35;;;;;;;11.44;100.00;100512.34;5070076;28;20029;-70
2023/03/22 10:10:17;;;;;;;18.25;3.17;;;;;;;11.45;100.00;100509.69;5068985;28;20029;-68
2023/03/22 10:13:18;;;;;;;15.57;3.17;;;;;;;11.41;100.00;100518.50;5061871;28;20548;-71
2023/03/22 10:15:47;;;;;;;19.05;3.60;;;;;;;11.28;100.00;100516.81;5064067;28;20037;-71
2023/03/22 10:18:36;;;;;;;17.40;3.20;;;;;;;11.28;100.00;100516.81;5065744;28;20021;-69
2023/03/22 10:21:03;;;;;;;18.23;3.40;;;;;;;11.24;100.00;100520.34;5068021;28;20450;-68
2023/03/22 10:23:39;;;;;;;16.20;3.55;;;;;;;10.95;100.00;100532.78;5071768;28;20025;-67
2023/03/22 10:26:06;;;;;;;17.33;3.33;;;;;;;10.69;100.00;100534.56;5071250;28;20555;-68
2023/03/22 10:28:42;;;;;;;16.15;3.20;;;;;;;10.63;100.00;100540.75;5078110;28;20501;-68
2023/03/22 10:31:14;;;;;;;17.35;3.50;;;;;;;10.50;100.00;100534.59;5072049;28;20133;-68
2023/03/22 10:34:06;;;;;;;15.27;3.33;;;;;;;10.06;100.00;100533.66;5076194;28;20028;-67
2023/03/22 10:36:35;;;;;;;18.77;4.00;;;;;;;9.42;100.00;100537.88;5067676;28;20083;-67
2023/03/22 10:39:15;;;;;;;19.92;4.05;;;;;;;9.20;100.00;100526.34;5073653;28;20040;-67
2023/03/22 10:41:40;;;;;;;19.00;4.38;;;;;;;9.17;100.00;100536.84;5071355;28;20032;-67
2023/03/22 10:44:06;;;;;;;18.67;4.13;;;;;;;9.15;100.00;100530.69;5068948;28;20031;-67
2023/03/22 10:46:38;;;;;;;21.00;4.70;;;;;;;9.10;100.00;100526.28;5077670;28;20617;-67
2023/03/22 10:49:06;;;;;;;17.47;4.30;;;;;;;9.05;100.00;100531.53;5069115;28;20097;-65
2023/03/22 10:51:53;;;;;;;20.25;4.70;;;;;;;9.08;100.00;100531.53;5074901;28;20033;-65
2023/03/22 10:54:20;;;;;;;19.33;4.63;;;;;;;9.20;100.00;100533.34;5074806;28;20025;-67
2023/03/22 10:56:46;;;;;;;24.90;5.30;;;;;;;9.14;100.00;100528.94;5074664;28;20032;-68
2023/03/22 10:59:54;;;;;;;18.80;4.82;;;;;;;9.04;100.00;100530.66;5075164;28;20490;-65
2023/03/22 11:02:20;;;;;;;18.60;4.90;;;;;;;8.96;100.00;100535.00;5041188;28;20123;-65
2023/03/22 11:04:49;;;;;;;20.10;5.18;;;;;;;8.92;100.00;100542.88;5074765;28;20082;-67
2023/03/22 11:07:31;;;;;;;20.45;5.43;;;;;;;8.78;100.00;100532.22;5074502;28;20055;-65
2023/03/22 11:09:59;;;;;;;20.00;5.68;;;;;;;8.93;100.00;100523.53;5073271;28;20364;-66
2023/03/22 11:12:24;;;;;;;20.98;5.47;;;;;;;8.91;100.00;100534.06;5074442;28;20032;-66
2023/03/22 11:14:51;;;;;;;22.52;5.65;;;;;;;8.98;100.00;100527.97;5074401;28;20110;-65
2023/03/22 11:17:22;;;;;;;19.55;5.43;;;;;;;8.95;100.00;100529.72;5074299;28;20032;-66
2023/03/22 11:19:56;;;;;;;19.67;5.47;;;;;;;9.00;100.00;100523.59;5074327;28;20545;-65
2023/03/22 11:22:30;;;;;;;21.40;5.80;;;;;;;9.10;100.00;100534.19;5070678;28;20146;-66
2023/03/22 11:24:57;;;;;;;19.88;5.38;;;;;;;9.06;100.00;100521.00;5071239;28;20387;-66